Time;durP1;ratioP1;P1;durP2;ratioP2;P2;SDS_P1;SDS_P2;PMS_P1;PMS_P2;Temp;Humidity;BMP_temperature;BMP_pressure;BME280_temperature;BME280_humidity;BME280_pressure;Samples;Min_cycle;Max_cycle;Signal;HPM_P1;HPM_P2
2023/09/15 00:03:59;;;;;;;;;;;15.90;99.90;;;;;;8367222;28;19924;-70
2023/09/15 00:08:04;;;;;;;;;;;15.90;99.90;;;;;;8364985;28;19979;-70
2023/09/15 00:12:07;;;;;;;;;;;15.90;99.90;;;;;;8372714;28;19925;-70
2023/09/15 00:16:09;;;;;;;;;;;15.90;99.90;;;;;;8368341;28;19925;-70
2023/09/15 00:20:13;;;;;;;;;;;15.80;99.90;;;;;;8373618;28;19924;-70
2023/09/15 00:24:15;;;;;;;;;;;15.80;99.90;;;;;;8371158;28;19985;-70
2023/09/15 00:28:17;;;;;;;;;;;15.80;99.90;;;;;;8368135;28;20388;-70
2023/09/15 00:32:19;;;;;;;;;;;15.80;99.90;;;;;;8384721;28;19976;-70
2023/09/15 00:36:21;;;;;;;;;;;15.70;99.90;;;;;;8372429;28;20371;-70
2023/09/15 00:40:24;;;;;;;;;;;15.70;99.90;;;;;;8372515;28;19925;-70
2023/09/15 00:44:25;;;;;;;;;;;15.70;99.90;;;;;;8381651;28;20322;-70
2023/09/15 00:48:27;;;;;;;;;;;15.60;99.90;;;;;;8367115;28;19974;-70
2023/09/15 00:52:29;;;;;;;;;;;15.60;99.90;;;;;;8372795;28;19971;-70
2023/09/15 00:56:31;;;;;;;;;;;15.60;99.90;;;;;;8373578;28;19928;-70
2023/09/15 01:00:33;;;;;;;;;;;15.50;99.90;;;;;;8372243;28;20368;-70
2023/09/15 01:04:35;;;;;;;;;;;15.50;99.90;;;;;;8380477;28;19924;-70
2023/09/15 01:08:41;;;;;;;;;;;15.40;99.90;;;;;;8374516;28;19932;-70
2023/09/15 01:12:43;;;;;;;;;;;15.40;99.90;;;;;;8376911;28;20441;-70
2023/09/15 01:17:03;;;;;;;;;;;15.30;99.90;;;;;;8375677;28;19947;-70
2023/09/15 01:21:31;;;;;;;;;;;15.30;99.90;;;;;;8377022;28;19929;-70
2023/09/15 01:25:33;;;;;;;;;;;15.20;99.90;;;;;;8365471;28;19956;-70
2023/09/15 01:29:37;;;;;;;;;;;15.20;99.90;;;;;;8367100;28;20296;-70
2023/09/15 01:33:39;;;;;;;;;;;15.10;99.90;;;;;;8375297;28;20068;-70
2023/09/15 01:37:41;;;;;;;;;;;15.10;99.90;;;;;;8363181;28;20325;-70
2023/09/15 01:51:50;;;;;;;;;;;15.00;99.90;;;;;;8372179;28;19931;-70
2023/09/15 01:55:52;;;;;;;;;;;14.90;99.90;;;;;;8373124;28;20014;-70
2023/09/15 01:59:56;;;;;;;;;;;14.80;99.90;;;;;;8370143;28;20398;-70
2023/09/15 02:03:58;;;;;;;;;;;14.70;99.90;;;;;;8362886;28;19986;-70
2023/09/15 02:08:00;;;;;;;;;;;14.70;99.90;;;;;;8371431;28;20421;-70
2023/09/15 02:12:01;;;;;;;;;;;14.60;99.90;;;;;;8365586;28;19924;-70
2023/09/15 02:16:03;;;;;;;;;;;14.60;99.90;;;;;;8373326;28;19933;-70
2023/09/15 02:20:11;;;;;;;;;;;14.60;99.90;;;;;;8360561;28;20015;-70
2023/09/15 02:24:14;;;;;;;;;;;14.60;99.90;;;;;;8366149;28;19973;-70
2023/09/15 02:28:15;;;;;;;;;;;14.60;99.90;;;;;;8359547;28;20632;-70
2023/09/15 02:32:17;;;;;;;;;;;14.60;99.90;;;;;;8378701;28;19924;-70
2023/09/15 02:36:19;;;;;;;;;;;14.50;99.90;;;;;;8369809;28;19932;-70
2023/09/15 02:40:23;;;;;;;;;;;14.40;99.90;;;;;;8378669;28;20017;-70
2023/09/15 02:44:25;;;;;;;;;;;14.40;99.90;;;;;;8375528;28;19924;-70
2023/09/15 02:48:26;;;;;;;;;;;14.40;99.90;;;;;;8372762;28;19932;-70
2023/09/15 02:52:28;;;;;;;;;;;14.30;99.90;;;;;;8364170;28;19964;-70
2023/09/15 02:56:30;;;;;;;;;;;14.30;99.90;;;;;;8383751;28;19928;-70
2023/09/15 03:00:31;;;;;;;;;;;14.30;99.90;;;;;;8378808;28;19939;-70
2023/09/15 03:04:33;;;;;;;;;;;14.30;99.90;;;;;;8378200;28;19930;-70
2023/09/15 03:08:35;;;;;;;;;;;14.20;99.90;;;;;;8372819;28;19924;-70
2023/09/15 03:12:37;;;;;;;;;;;14.20;99.90;;;;;;8382733;28;20338;-70
2023/09/15 03:16:42;;;;;;;;;;;14.20;99.90;;;;;;8380726;28;19932;-70
2023/09/15 03:20:44;;;;;;;;;;;14.20;99.90;;;;;;8380446;28;19932;-70
2023/09/15 03:24:45;;;;;;;;;;;14.10;99.90;;;;;;8376430;28;19936;-70
2023/09/15 03:28:47;;;;;;;;;;;14.10;99.90;;;;;;8373360;28;19928;-70
2023/09/15 03:32:49;;;;;;;;;;;14.10;99.90;;;;;;8375022;28;20342;-70
2023/09/15 03:36:51;;;;;;;;;;;14.00;99.90;;;;;;8360726;28;20389;-70
2023/09/15 03:40:52;;;;;;;;;;;14.00;99.90;;;;;;8367118;28;19924;-70
2023/09/15 03:44:54;;;;;;;;;;;14.00;99.90;;;;;;8371369;28;20338;-70
2023/09/15 03:48:56;;;;;;;;;;;14.00;99.90;;;;;;8347816;28;19971;-70
2023/09/15 03:52:57;;;;;;;;;;;13.90;99.90;;;;;;8373315;28;20322;-70
2023/09/15 03:56:59;;;;;;;;;;;13.90;99.90;;;;;;8371590;28;19925;-70
2023/09/15 04:01:02;;;;;;;;;;;13.90;99.90;;;;;;8376363;28;20407;-70
2023/09/15 04:05:04;;;;;;;;;;;13.90;99.90;;;;;;8358123;28;20268;-70
2023/09/15 04:09:15;;;;;;;;;;;13.90;99.90;;;;;;8380341;28;20291;-70
2023/09/15 04:13:17;;;;;;;;;;;13.80;99.90;;;;;;8383519;28;20327;-69
2023/09/15 04:17:18;;;;;;;;;;;13.80;99.90;;;;;;8375327;28;19957;-70
2023/09/15 04:21:20;;;;;;;;;;;13.80;99.90;;;;;;8372980;28;19947;-69
2023/09/15 04:25:22;;;;;;;;;;;13.80;99.90;;;;;;8379298;28;19935;-70
2023/09/15 04:29:24;;;;;;;;;;;13.80;99.90;;;;;;8369036;28;19924;-70
2023/09/15 04:33:26;;;;;;;;;;;13.70;99.90;;;;;;8372146;28;19924;-69
2023/09/15 04:37:27;;;;;;;;;;;13.70;99.90;;;;;;8385311;28;19971;-69
2023/09/15 04:41:29;;;;;;;;;;;13.60;99.90;;;;;;8379519;28;19931;-70
2023/09/15 04:45:31;;;;;;;;;;;13.60;99.90;;;;;;8372475;28;20303;-69
2023/09/15 04:49:33;;;;;;;;;;;13.60;99.90;;;;;;8367267;28;19925;-70
2023/09/15 04:53:34;;;;;;;;;;;13.50;99.90;;;;;;8381970;28;19978;-70
2023/09/15 04:57:36;;;;;;;;;;;13.50;99.90;;;;;;8370377;28;19924;-70
2023/09/15 05:01:39;;;;;;;;;;;13.40;99.90;;;;;;8374258;28;20408;-70
2023/09/15 05:05:43;;;;;;;;;;;13.40;99.90;;;;;;8379672;28;19924;-69
2023/09/15 05:09:45;;;;;;;;;;;13.30;99.90;;;;;;8362468;28;19929;-69
2023/09/15 05:13:47;;;;;;;;;;;13.40;99.90;;;;;;8376246;28;19924;-70
2023/09/15 05:17:49;;;;;;;;;;;13.30;99.90;;;;;;8367092;28;19932;-70
2023/09/15 05:21:50;;;;;;;;;;;13.30;99.90;;;;;;8363888;28;20336;-70
2023/09/15 05:25:53;;;;;;;;;;;13.30;99.90;;;;;;8364240;28;19932;-69
2023/09/15 05:29:55;;;;;;;;;;;13.20;99.90;;;;;;8377720;28;19929;-70
2023/09/15 05:33:57;;;;;;;;;;;13.30;99.90;;;;;;8367037;28;19980;-70
2023/09/15 05:37:59;;;;;;;;;;;13.30;99.90;;;;;;8377846;28;19924;-70
2023/09/15 05:42:01;;;;;;;;;;;13.30;99.90;;;;;;8379273;28;19925;-70
2023/09/15 05:46:02;;;;;;;;;;;13.20;99.90;;;;;;8375072;28;20368;-69
2023/09/15 05:50:04;;;;;;;;;;;13.20;99.90;;;;;;8366748;28;19929;-70
2023/09/15 05:54:07;;;;;;;;;;;13.20;99.90;;;;;;8361694;28;19929;-70
2023/09/15 05:58:09;;;;;;;;;;;13.20;99.90;;;;;;8364910;28;20370;-70
2023/09/15 06:02:10;;;;;;;;;;;13.20;99.90;;;;;;8383961;28;20015;-70
2023/09/15 06:06:12;;;;;;;;;;;13.30;99.90;;;;;;8376455;28;19925;-70
2023/09/15 06:10:14;;;;;;;;;;;13.30;99.90;;;;;;8355831;28;19929;-70
2023/09/15 06:14:15;;;;;;;;;;;13.40;99.90;;;;;;8380404;28;19931;-70
2023/09/15 06:18:17;;;;;;;;;;;13.40;99.90;;;;;;8378823;28;19977;-70
2023/09/15 06:22:19;;;;;;;;;;;13.40;99.90;;;;;;8376742;28;19924;-70
2023/09/15 06:26:21;;;;;;;;;;;13.40;99.90;;;;;;8362241;28;19971;-70
2023/09/15 06:30:23;;;;;;;;;;;13.50;99.90;;;;;;8374747;28;20307;-70
2023/09/15 06:34:24;;;;;;;;;;;13.60;99.90;;;;;;8373558;28;19971;-70
2023/09/15 06:38:26;;;;;;;;;;;13.70;99.90;;;;;;8380750;28;20364;-70
2023/09/15 06:42:28;;;;;;;;;;;13.90;99.90;;;;;;8387770;28;19924;-70
2023/09/15 06:46:29;;;;;;;;;;;14.00;99.90;;;;;;8370877;28;20392;-71
2023/09/15 06:50:31;;;;;;;;;;;14.10;99.90;;;;;;8378457;28;20377;-71
2023/09/15 06:54:33;;;;;;;;;;;14.20;99.90;;;;;;8375765;28;19928;-70
2023/09/15 06:58:35;;;;;;;;;;;14.40;99.90;;;;;;8363288;28;19929;-70
2023/09/15 07:02:37;;;;;;;;;;;14.50;99.90;;;;;;8386454;28;19932;-70
2023/09/15 07:06:41;;;;;;;;;;;14.60;99.90;;;;;;8376173;28;20463;-70
2023/09/15 07:10:43;;;;;;;;;;;14.70;99.90;;;;;;8364613;28;20269;-70
2023/09/15 07:14:45;;;;;;;;;;;14.80;99.90;;;;;;8350712;28;20398;-70
2023/09/15 07:18:47;;;;;;;;;;;14.80;99.90;;;;;;8382521;28;19928;-70
2023/09/15 07:22:48;;;;;;;;;;;14.90;99.90;;;;;;8381726;28;19925;-70
2023/09/15 07:26:50;;;;;;;;;;;15.00;99.90;;;;;;8384227;28;19924;-70
2023/09/15 07:30:52;;;;;;;;;;;15.00;99.90;;;;;;8377505;28;19936;-71
2023/09/15 07:34:53;;;;;;;;;;;15.20;99.90;;;;;;8376288;28;19928;-70
2023/09/15 07:38:55;;;;;;;;;;;15.30;99.90;;;;;;8367341;28;19924;-70
2023/09/15 07:42:57;;;;;;;;;;;15.40;99.90;;;;;;8367836;28;20207;-70
2023/09/15 07:46:59;;;;;;;;;;;15.50;99.90;;;;;;8374365;28;19924;-70
2023/09/15 07:51:00;;;;;;;;;;;15.70;99.90;;;;;;8381103;28;20027;-70
2023/09/15 07:55:03;;;;;;;;;;;15.80;99.90;;;;;;8382348;28;19929;-70
2023/09/15 07:59:06;;;;;;;;;;;15.80;99.90;;;;;;8373438;28;19991;-70
2023/09/15 08:03:08;;;;;;;;;;;15.90;99.90;;;;;;8369220;28;20442;-70
2023/09/15 08:07:10;;;;;;;;;;;16.00;99.90;;;;;;8354205;28;20296;-70
2023/09/15 08:11:12;;;;;;;;;;;16.10;99.90;;;;;;8371953;28;19924;-70
2023/09/15 08:15:15;;;;;;;;;;;16.30;99.90;;;;;;8370431;28;19925;-70
2023/09/15 08:19:16;;;;;;;;;;;16.40;99.90;;;;;;8372434;28;20441;-70
2023/09/15 08:23:18;;;;;;;;;;;16.60;99.90;;;;;;8370841;28;19925;-71
2023/09/15 08:27:19;;;;;;;;;;;16.70;99.90;;;;;;8377283;28;19932;-70
2023/09/15 08:31:21;;;;;;;;;;;16.80;99.90;;;;;;8372571;28;20338;-70
2023/09/15 08:35:23;;;;;;;;;;;16.90;99.90;;;;;;8374021;28;19931;-70
2023/09/15 08:39:24;;;;;;;;;;;17.00;99.90;;;;;;8375507;28;19931;-71
2023/09/15 08:43:27;;;;;;;;;;;17.10;99.90;;;;;;8373023;28;19931;-71
2023/09/15 08:47:31;;;;;;;;;;;17.20;99.90;;;;;;8362923;28;19964;-71
2023/09/15 08:51:33;;;;;;;;;;;17.40;99.90;;;;;;8370637;28;20359;-70
2023/09/15 08:55:35;;;;;;;;;;;17.60;99.90;;;;;;8376004;28;19925;-71
2023/09/15 08:59:38;;;;;;;;;;;17.70;99.90;;;;;;8355115;28;19986;-71
2023/09/15 09:03:40;;;;;;;;;;;17.80;99.90;;;;;;8377151;28;19948;-70
2023/09/15 09:07:42;;;;;;;;;;;17.90;99.90;;;;;;8371115;28;19925;-70
2023/09/15 09:11:43;;;;;;;;;;;18.00;99.90;;;;;;8377014;28;19936;-70
2023/09/15 09:15:46;;;;;;;;;;;18.10;99.90;;;;;;8365095;28;19925;-70
2023/09/15 09:19:49;;;;;;;;;;;18.10;99.90;;;;;;8370916;28;19928;-70
2023/09/15 09:23:50;;;;;;;;;;;18.30;99.90;;;;;;8351306;28;20362;-71
2023/09/15 09:27:52;;;;;;;;;;;18.40;99.90;;;;;;8350573;28;20360;-71
2023/09/15 09:31:54;;;;;;;;;;;18.50;99.90;;;;;;8364606;28;20273;-70
2023/09/15 09:35:56;;;;;;;;;;;18.70;99.90;;;;;;8359329;28;19928;-70
2023/09/15 09:39:58;;;;;;;;;;;18.70;99.90;;;;;;8372443;28;19928;-70
2023/09/15 09:44:03;;;;;;;;;;;18.80;99.90;;;;;;8359419;28;20367;-71
2023/09/15 09:48:05;;;;;;;;;;;18.80;99.90;;;;;;8368828;28;19925;-70
2023/09/15 09:52:07;;;;;;;;;;;19.00;99.90;;;;;;8348791;28;19999;-70
2023/09/15 09:56:09;;;;;;;;;;;19.10;99.90;;;;;;8372515;28;19982;-70
2023/09/15 10:00:10;;;;;;;;;;;19.20;99.90;;;;;;8378517;28;20079;-71
2023/09/15 10:04:12;;;;;;;;;;;19.40;99.90;;;;;;8367736;28;19928;-70
2023/09/15 10:08:15;;;;;;;;;;;19.50;99.90;;;;;;8366065;28;20458;-70
2023/09/15 10:12:17;;;;;;;;;;;19.70;99.90;;;;;;8370222;28;19947;-71
2023/09/15 10:16:18;;;;;;;;;;;19.80;99.90;;;;;;8372740;28;19935;-70
2023/09/15 10:20:22;;;;;;;;;;;19.80;99.90;;;;;;8376723;28;19924;-70
2023/09/15 10:24:23;;;;;;;;;;;19.90;99.90;;;;;;8372938;28;19928;-70
2023/09/15 10:28:25;;;;;;;;;;;20.00;99.90;;;;;;8354748;28;20406;-70
2023/09/15 10:32:34;;;;;;;;;;;20.00;99.90;;;;;;8369371;28;19994;-70
2023/09/15 10:36:38;;;;;;;;;;;20.10;99.90;;;;;;8372554;28;19967;-70
2023/09/15 10:40:43;;;;;;;;;;;20.10;99.90;;;;;;8371882;28;19948;-70
2023/09/15 10:44:45;;;;;;;;;;;20.20;99.90;;;;;;8374662;28;19955;-71
2023/09/15 10:48:48;;;;;;;;;;;20.20;99.90;;;;;;8362634;28;19940;-71
2023/09/15 10:52:50;;;;;;;;;;;20.30;99.90;;;;;;8374633;28;20364;-71
2023/09/15 10:56:52;;;;;;;;;;;20.40;99.90;;;;;;8369480;28;19925;-71
2023/09/15 11:00:54;;;;;;;;;;;20.40;99.90;;;;;;8373788;28;19924;-71
2023/09/15 11:04:56;;;;;;;;;;;20.50;99.90;;;;;;8368548;28;19924;-71
2023/09/15 11:08:58;;;;;;;;;;;20.60;99.90;;;;;;8376157;28;19925;-71
2023/09/15 11:13:01;;;;;;;;;;;20.70;99.90;;;;;;8370624;28;19928;-71
2023/09/15 11:17:03;;;;;;;;;;;20.80;99.90;;;;;;8369010;28;19967;-71
2023/09/15 11:21:06;;;;;;;;;;;20.90;99.90;;;;;;8368580;28;19993;-70
2023/09/15 11:25:09;;;;;;;;;;;21.00;99.90;;;;;;8367058;28;19972;-70
2023/09/15 11:29:23;;;;;;;;;;;21.10;99.90;;;;;;8371614;28;19978;-71
2023/09/15 11:33:25;;;;;;;;;;;21.20;99.90;;;;;;8368340;28;19928;-71
2023/09/15 11:37:27;;;;;;;;;;;21.20;99.90;;;;;;8365543;28;19925;-71
2023/09/15 11:41:29;;;;;;;;;;;21.20;99.90;;;;;;8380158;28;19924;-70
2023/09/15 11:45:31;;;;;;;;;;;21.20;99.90;;;;;;8379505;28;20594;-71
2023/09/15 11:49:32;;;;;;;;;;;21.30;99.90;;;;;;8376251;28;19925;-71
2023/09/15 11:53:36;;;;;;;;;;;21.40;99.90;;;;;;8384000;28;19925;-72
2023/09/15 11:57:38;;;;;;;;;;;21.60;99.90;;;;;;8373795;28;20269;-72
2023/09/15 12:01:40;;;;;;;;;;;21.70;99.90;;;;;;8364510;28;19924;-72
2023/09/15 12:05:42;;;;;;;;;;;21.70;99.90;;;;;;8365783;28;20005;-72
2023/09/15 12:09:43;;;;;;;;;;;21.70;99.90;;;;;;8353389;28;19925;-72
2023/09/15 12:13:52;;;;;;;;;;;21.80;99.90;;;;;;8377878;28;20374;-72
2023/09/15 12:17:55;;;;;;;;;;;21.80;99.90;;;;;;8364053;28;20010;-71
2023/09/15 12:21:59;;;;;;;;;;;21.80;99.90;;;;;;8369114;28;19924;-71
2023/09/15 12:26:01;;;;;;;;;;;21.80;99.90;;;;;;8380274;28;19978;-73
2023/09/15 12:30:03;;;;;;;;;;;21.90;99.90;;;;;;8373919;28;19925;-71
2023/09/15 12:34:06;;;;;;;;;;;21.90;99.90;;;;;;8376941;28;19948;-72
2023/09/15 12:38:09;;;;;;;;;;;21.90;99.90;;;;;;8379916;28;19951;-71
2023/09/15 12:42:13;;;;;;;;;;;21.90;99.90;;;;;;8369294;28;19924;-71
2023/09/15 12:46:16;;;;;;;;;;;21.90;99.90;;;;;;8363343;28;19989;-71
2023/09/15 12:50:17;;;;;;;;;;;21.80;99.90;;;;;;8368712;28;19931;-72
2023/09/15 12:54:21;;;;;;;;;;;21.90;99.90;;;;;;8371445;28;19977;-72
2023/09/15 12:58:24;;;;;;;;;;;21.90;99.90;;;;;;8371836;28;19964;-71
2023/09/15 13:02:27;;;;;;;;;;;21.90;99.90;;;;;;8371069;28;19951;-72
2023/09/15 13:06:29;;;;;;;;;;;22.00;99.90;;;;;;8369956;28;19931;-72
2023/09/15 13:10:34;;;;;;;;;;;22.00;99.90;;;;;;8374930;28;19931;-72
2023/09/15 13:14:35;;;;;;;;;;;22.00;99.90;;;;;;8380179;28;19924;-72
2023/09/15 13:18:37;;;;;;;;;;;22.10;99.90;;;;;;8372659;28;19925;-71
2023/09/15 13:22:38;;;;;;;;;;;22.10;99.90;;;;;;8365768;28;19925;-72
2023/09/15 13:26:41;;;;;;;;;;;22.10;99.90;;;;;;8362172;28;19924;-72
2023/09/15 13:30:43;;;;;;;;;;;22.10;99.90;;;;;;8362441;28;19925;-72
2023/09/15 13:34:45;;;;;;;;;;;22.10;99.90;;;;;;8365595;28;20303;-72
2023/09/15 13:38:46;;;;;;;;;;;22.20;99.90;;;;;;8369678;28;19964;-72
2023/09/15 13:42:48;;;;;;;;;;;22.30;99.90;;;;;;8376993;28;19928;-73
2023/09/15 13:46:50;;;;;;;;;;;22.40;99.90;;;;;;8369517;28;19929;-73
2023/09/15 13:50:52;;;;;;;;;;;22.50;99.90;;;;;;8361931;28;19930;-72
2023/09/15 13:54:55;;;;;;;;;;;22.60;99.90;;;;;;8372378;28;19925;-72
2023/09/15 13:58:57;;;;;;;;;;;22.70;99.90;;;;;;8372189;28;19931;-72
2023/09/15 14:02:58;;;;;;;;;;;22.70;99.90;;;;;;8377973;28;19955;-72
2023/09/15 14:07:04;;;;;;;;;;;22.70;99.90;;;;;;8372380;28;19925;-72
2023/09/15 14:11:08;;;;;;;;;;;22.90;99.90;;;;;;8376084;28;19979;-71
2023/09/15 14:15:10;;;;;;;;;;;23.00;99.90;;;;;;8381840;28;20394;-72
2023/09/15 14:19:12;;;;;;;;;;;23.10;99.90;;;;;;8371513;28;19928;-72
2023/09/15 14:23:14;;;;;;;;;;;23.20;99.90;;;;;;8380655;28;19928;-71
2023/09/15 14:27:17;;;;;;;;;;;23.30;99.90;;;;;;8357317;28;21272;-72
2023/09/15 14:31:20;;;;;;;;;;;23.30;99.90;;;;;;8379703;28;19925;-71
2023/09/15 14:35:22;;;;;;;;;;;23.40;99.90;;;;;;8372526;28;19940;-72
2023/09/15 14:39:24;;;;;;;;;;;23.40;99.90;;;;;;8371469;28;19932;-72
2023/09/15 14:43:28;;;;;;;;;;;23.40;99.90;;;;;;8364543;28;19939;-72
2023/09/15 14:47:30;;;;;;;;;;;23.40;99.90;;;;;;8373603;28;19948;-72
2023/09/15 14:51:32;;;;;;;;;;;23.30;99.90;;;;;;8379738;28;20566;-71
2023/09/15 14:55:33;;;;;;;;;;;23.20;99.90;;;;;;8375593;28;20279;-72
2023/09/15 14:59:35;;;;;;;;;;;23.20;99.90;;;;;;8380948;28;19931;-71
2023/09/15 15:03:37;;;;;;;;;;;23.20;99.90;;;;;;8380827;28;19966;-72
2023/09/15 15:07:39;;;;;;;;;;;23.20;99.90;;;;;;8371002;28;19970;-71
2023/09/15 15:11:40;;;;;;;;;;;23.20;99.90;;;;;;8369512;28;19929;-71
2023/09/15 15:15:43;;;;;;;;;;;23.10;99.90;;;;;;8367834;28;19932;-72
2023/09/15 15:19:45;;;;;;;;;;;23.10;99.90;;;;;;8366285;28;19975;-71
2023/09/15 15:23:47;;;;;;;;;;;23.10;99.90;;;;;;8367892;28;19932;-72
2023/09/15 15:27:51;;;;;;;;;;;23.10;99.90;;;;;;8372913;28;19931;-71
2023/09/15 15:31:55;;;;;;;;;;;23.10;99.90;;;;;;8373518;28;20358;-72
2023/09/15 15:35:57;;;;;;;;;;;23.10;99.90;;;;;;8350154;28;19925;-72
2023/09/15 15:39:59;;;;;;;;;;;23.10;99.90;;;;;;8371916;28;19925;-72
2023/09/15 15:44:01;;;;;;;;;;;23.10;99.90;;;;;;8360263;28;19925;-72
2023/09/15 15:48:03;;;;;;;;;;;23.00;99.90;;;;;;8366194;28;19978;-72
2023/09/15 15:52:05;;;;;;;;;;;23.00;99.90;;;;;;8363652;28;19925;-72
2023/09/15 15:56:07;;;;;;;;;;;22.90;99.90;;;;;;8359339;28;19925;-72
2023/09/15 16:00:09;;;;;;;;;;;22.90;99.90;;;;;;8378340;28;19936;-72
2023/09/15 16:04:11;;;;;;;;;;;22.90;99.90;;;;;;8374723;28;19925;-72
2023/09/15 16:08:12;;;;;;;;;;;22.80;99.90;;;;;;8364538;28;19976;-72
2023/09/15 16:12:15;;;;;;;;;;;22.80;99.90;;;;;;8371125;28;19925;-72
2023/09/15 16:16:17;;;;;;;;;;;22.70;99.90;;;;;;8387988;28;19985;-72
2023/09/15 16:20:19;;;;;;;;;;;22.60;99.90;;;;;;8384702;28;20166;-72
2023/09/15 16:24:20;;;;;;;;;;;22.60;99.90;;;;;;8362772;28;20399;-72
2023/09/15 16:28:22;;;;;;;;;;;22.60;99.90;;;;;;8375291;28;20023;-72
2023/09/15 16:32:24;;;;;;;;;;;22.50;99.90;;;;;;8375118;28;19924;-72
2023/09/15 16:36:26;;;;;;;;;;;22.50;99.90;;;;;;8376068;28;19940;-72
2023/09/15 16:40:28;;;;;;;;;;;22.50;99.90;;;;;;8385754;28;20203;-72
2023/09/15 16:44:30;;;;;;;;;;;22.40;99.90;;;;;;8370777;28;19924;-72
2023/09/15 16:48:31;;;;;;;;;;;22.40;99.90;;;;;;8381532;28;19928;-72
2023/09/15 16:52:33;;;;;;;;;;;22.30;99.90;;;;;;8378371;28;19935;-72
2023/09/15 16:56:35;;;;;;;;;;;22.20;99.90;;;;;;8360798;28;19932;-72
2023/09/15 17:00:36;;;;;;;;;;;22.20;99.90;;;;;;8367255;28;19925;-72
2023/09/15 17:04:38;;;;;;;;;;;22.10;99.90;;;;;;8374671;28;19946;-72
2023/09/15 17:08:39;;;;;;;;;;;22.00;99.90;;;;;;8371333;28;20042;-73
2023/09/15 17:12:42;;;;;;;;;;;22.00;99.90;;;;;;8375327;28;19969;-72
2023/09/15 17:16:44;;;;;;;;;;;21.90;99.90;;;;;;8375241;28;19986;-72
2023/09/15 17:20:46;;;;;;;;;;;22.00;99.90;;;;;;8364146;28;19928;-72
2023/09/15 17:24:48;;;;;;;;;;;22.00;99.90;;;;;;8380062;28;20148;-72
2023/09/15 17:28:50;;;;;;;;;;;22.10;99.90;;;;;;8377893;28;19954;-72
2023/09/15 17:32:52;;;;;;;;;;;22.10;99.90;;;;;;8362343;28;20009;-72
2023/09/15 17:36:55;;;;;;;;;;;22.00;99.90;;;;;;8382152;28;19929;-72
2023/09/15 17:40:57;;;;;;;;;;;21.80;99.90;;;;;;8372990;28;20285;-72
2023/09/15 17:44:59;;;;;;;;;;;21.70;99.90;;;;;;8366160;28;19994;-71
2023/09/15 17:49:01;;;;;;;;;;;21.60;99.90;;;;;;8364238;28;19925;-71
2023/09/15 17:53:03;;;;;;;;;;;21.50;99.90;;;;;;8371428;28;19932;-72
2023/09/15 17:57:04;;;;;;;;;;;21.30;99.90;;;;;;8376608;28;19943;-72
2023/09/15 18:01:07;;;;;;;;;;;21.20;99.90;;;;;;8369272;28;19924;-71
2023/09/15 18:05:10;;;;;;;;;;;21.10;99.90;;;;;;8381296;28;19925;-71
2023/09/15 18:09:11;;;;;;;;;;;21.00;99.90;;;;;;8381384;28;19924;-71
2023/09/15 18:13:13;;;;;;;;;;;20.80;99.90;;;;;;8382296;28;19924;-71
2023/09/15 18:17:15;;;;;;;;;;;20.70;99.90;;;;;;8380880;28;19929;-71
2023/09/15 18:21:17;;;;;;;;;;;20.60;99.90;;;;;;8371611;28;19929;-71
2023/09/15 18:25:20;;;;;;;;;;;20.50;99.90;;;;;;8369329;28;19947;-71
2023/09/15 18:29:21;;;;;;;;;;;20.40;99.90;;;;;;8384161;28;19932;-71
2023/09/15 18:33:24;;;;;;;;;;;20.30;99.90;;;;;;8370929;28;20038;-71
2023/09/15 18:37:26;;;;;;;;;;;20.20;99.90;;;;;;8376989;28;19924;-71
2023/09/15 18:41:28;;;;;;;;;;;20.10;99.90;;;;;;8380632;28;19935;-71
2023/09/15 18:45:29;;;;;;;;;;;20.00;99.90;;;;;;8393544;28;19933;-71
2023/09/15 18:49:31;;;;;;;;;;;19.90;99.90;;;;;;8383733;28;20022;-71
2023/09/15 18:53:33;;;;;;;;;;;19.80;99.90;;;;;;8366056;28;19924;-71
2023/09/15 18:57:37;;;;;;;;;;;19.70;99.90;;;;;;8377079;28;20454;-71
2023/09/15 19:01:39;;;;;;;;;;;19.60;99.90;;;;;;8377979;28;20006;-71
2023/09/15 19:05:40;;;;;;;;;;;19.60;99.90;;;;;;8383862;28;20367;-72
2023/09/15 19:09:42;;;;;;;;;;;19.50;99.90;;;;;;8369864;28;19925;-71
2023/09/15 19:13:44;;;;;;;;;;;19.40;99.90;;;;;;8372766;28;20011;-71
2023/09/15 19:17:45;;;;;;;;;;;19.40;99.90;;;;;;8381994;28;20428;-71
2023/09/15 19:21:47;;;;;;;;;;;19.30;99.90;;;;;;8380215;28;19946;-71
2023/09/15 19:25:49;;;;;;;;;;;19.30;99.90;;;;;;8380009;28;19946;-71
2023/09/15 19:29:51;;;;;;;;;;;19.20;99.90;;;;;;8385145;28;20398;-71
2023/09/15 19:33:52;;;;;;;;;;;19.10;99.90;;;;;;8374258;28;20406;-71
2023/09/15 19:37:54;;;;;;;;;;;19.00;99.90;;;;;;8371503;28;20016;-71
2023/09/15 19:41:56;;;;;;;;;;;19.00;99.90;;;;;;8370730;28;20391;-71
2023/09/15 19:45:58;;;;;;;;;;;19.00;99.90;;;;;;8374660;28;19928;-71
2023/09/15 19:49:59;;;;;;;;;;;18.90;99.90;;;;;;8373913;28;19925;-71
2023/09/15 19:54:01;;;;;;;;;;;18.90;99.90;;;;;;8366760;28;19925;-71
2023/09/15 19:58:04;;;;;;;;;;;18.80;99.90;;;;;;8374862;28;20337;-71
2023/09/15 20:02:06;;;;;;;;;;;18.70;99.90;;;;;;8376523;28;19925;-71
2023/09/15 20:06:09;;;;;;;;;;;18.70;99.90;;;;;;8367289;28;19929;-71
2023/09/15 20:10:13;;;;;;;;;;;18.60;99.90;;;;;;8355199;28;20438;-71
2023/09/15 20:14:15;;;;;;;;;;;18.60;99.90;;;;;;8374537;28;19947;-72
2023/09/15 20:18:17;;;;;;;;;;;18.50;99.90;;;;;;8375171;28;20337;-71
2023/09/15 20:22:20;;;;;;;;;;;18.50;99.90;;;;;;8380949;28;19932;-71
2023/09/15 20:26:22;;;;;;;;;;;18.40;99.90;;;;;;8355844;28;19924;-71
2023/09/15 20:30:24;;;;;;;;;;;18.30;99.90;;;;;;8378500;28;19925;-71
2023/09/15 20:34:25;;;;;;;;;;;18.30;99.90;;;;;;8379231;28;20291;-71
2023/09/15 20:38:27;;;;;;;;;;;18.20;99.90;;;;;;8384401;28;19925;-71
2023/09/15 20:42:28;;;;;;;;;;;18.10;99.90;;;;;;8366662;28;19932;-71
2023/09/15 20:46:30;;;;;;;;;;;18.10;99.90;;;;;;8374992;28;19931;-71
2023/09/15 20:50:32;;;;;;;;;;;18.10;99.90;;;;;;8374961;28;20393;-71
2023/09/15 20:54:34;;;;;;;;;;;18.10;99.90;;;;;;8375061;28;20284;-71
2023/09/15 20:58:37;;;;;;;;;;;18.00;99.90;;;;;;8373011;28;19931;-71
2023/09/15 21:02:41;;;;;;;;;;;18.00;99.90;;;;;;8378123;28;19925;-71
2023/09/15 21:06:42;;;;;;;;;;;18.00;99.90;;;;;;8375893;28;20414;-71
2023/09/15 21:10:48;;;;;;;;;;;18.00;99.90;;;;;;8372831;28;19972;-71
2023/09/15 21:14:50;;;;;;;;;;;18.00;99.90;;;;;;8371599;28;19924;-71
2023/09/15 21:18:52;;;;;;;;;;;18.00;99.90;;;;;;8381478;28;20388;-71
2023/09/15 21:22:56;;;;;;;;;;;18.00;99.90;;;;;;8378186;28;19939;-71
2023/09/15 21:26:57;;;;;;;;;;;17.90;99.90;;;;;;8366299;28;19924;-71
2023/09/15 21:31:05;;;;;;;;;;;17.90;99.90;;;;;;8377699;28;19925;-71
2023/09/15 21:35:09;;;;;;;;;;;17.80;99.90;;;;;;8368247;28;20291;-71
2023/09/15 21:39:11;;;;;;;;;;;17.80;99.90;;;;;;8374018;28;19924;-71
2023/09/15 21:43:14;;;;;;;;;;;17.70;99.90;;;;;;8360674;28;19925;-71
2023/09/15 21:47:15;;;;;;;;;;;17.70;99.90;;;;;;8362456;28;19924;-71
2023/09/15 21:51:17;;;;;;;;;;;17.70;99.90;;;;;;8374005;28;19932;-71
2023/09/15 21:55:18;;;;;;;;;;;17.60;99.90;;;;;;8342054;28;19925;-71
2023/09/15 21:59:20;;;;;;;;;;;17.60;99.90;;;;;;8375316;28;19928;-71
2023/09/15 22:03:22;;;;;;;;;;;17.50;99.90;;;;;;8362871;28;19970;-71
2023/09/15 22:17:45;;;;;;;;;;;17.40;99.90;;;;;;8364433;28;20271;-71
2023/09/15 22:21:46;;;;;;;;;;;17.30;99.90;;;;;;8370381;28;19929;-71
2023/09/15 22:25:49;;;;;;;;;;;17.30;99.90;;;;;;8368615;28;19929;-71
2023/09/15 22:29:51;;;;;;;;;;;17.20;99.90;;;;;;8356225;28;19991;-71
2023/09/15 22:33:53;;;;;;;;;;;17.20;99.90;;;;;;8364725;28;19980;-71
2023/09/15 22:37:55;;;;;;;;;;;17.20;99.90;;;;;;8362970;28;20399;-71
2023/09/15 22:41:57;;;;;;;;;;;17.10;99.90;;;;;;8379346;28;19967;-71
2023/09/15 22:46:01;;;;;;;;;;;17.00;99.90;;;;;;8373938;28;19932;-71
2023/09/15 22:50:07;;;;;;;;;;;17.00;99.90;;;;;;8387803;28;19967;-71
2023/09/15 22:54:08;;;;;;;;;;;17.00;99.90;;;;;;8381309;28;19932;-71
2023/09/15 22:58:10;;;;;;;;;;;17.00;99.90;;;;;;8378067;28;19924;-71
2023/09/15 23:02:11;;;;;;;;;;;17.00;99.90;;;;;;8382177;28;20255;-71
2023/09/15 23:06:13;;;;;;;;;;;16.90;99.90;;;;;;8383579;28;19932;-71
2023/09/15 23:10:16;;;;;;;;;;;16.90;99.90;;;;;;8371553;28;19925;-71
2023/09/15 23:14:17;;;;;;;;;;;16.90;99.90;;;;;;8376232;28;19950;-71
2023/09/15 23:18:19;;;;;;;;;;;16.90;99.90;;;;;;8381237;28;19932;-71
2023/09/15 23:22:21;;;;;;;;;;;16.80;99.90;;;;;;8378290;28;19925;-71
2023/09/15 23:26:22;;;;;;;;;;;16.80;99.90;;;;;;8374017;28;19931;-71
2023/09/15 23:30:24;;;;;;;;;;;16.80;99.90;;;;;;8376238;28;20437;-71
2023/09/15 23:34:26;;;;;;;;;;;16.70;99.90;;;;;;8376289;28;19929;-71
2023/09/15 23:38:28;;;;;;;;;;;16.70;99.90;;;;;;8371890;28;19932;-71
2023/09/15 23:42:30;;;;;;;;;;;16.70;99.90;;;;;;8377015;28;19932;-71
2023/09/15 23:46:31;;;;;;;;;;;16.60;99.90;;;;;;8360025;28;19947;-71
2023/09/15 23:50:33;;;;;;;;;;;16.60;99.90;;;;;;8374357;28;20392;-71